Time;durP1;ratioP1;P1;durP2;ratioP2;P2;SDS_P1;SDS_P2;PMS_P1;PMS_P2;Temp;Humidity;BMP_temperature;BMP_pressure;BME280_temperature;BME280_humidity;BME280_pressure;Samples;Min_cycle;Max_cycle;Signal;HPM_P1;HPM_P2
2021/11/07 00:12:16;;;;;;;17.30;10.40;;;;;;;7.37;70.76;100256.52;27305;1218;3055679;-75
2021/11/07 00:14:48;;;;;;;18.20;10.40;;;;;;;7.22;71.47;100255.09;27280;1218;3049771;-76
2021/11/07 00:17:21;;;;;;;23.60;11.00;;;;;;;7.02;72.16;100253.19;27244;1217;3029013;-69
2021/11/07 00:20:02;;;;;;;23.50;10.90;;;;;;;6.96;72.21;100247.45;27309;1218;3027910;-71
2021/11/07 00:25:25;;;;;;;17.30;8.50;;;;;;;7.61;70.28;100245.73;27298;1217;3051694;-71
2021/11/07 00:28:01;;;;;;;18.30;9.20;;;;;;;8.03;68.21;100246.30;27328;1218;3057099;-70
2021/11/07 00:36:10;;;;;;;16.60;9.10;;;;;;;7.50;68.99;100245.96;27314;1217;3026421;-74
2021/11/07 00:38:55;;;;;;;19.50;10.10;;;;;;;7.34;69.37;100241.46;27305;1217;3067566;-70
2021/11/07 00:44:00;;;;;;;19.40;10.60;;;;;;;6.99;70.61;100239.35;27302;1218;3027905;-76
2021/11/07 00:51:35;;;;;;;15.70;9.00;;;;;;;6.78;71.50;100242.30;27327;1218;3053889;-71
2021/11/07 00:59:36;;;;;;;;;;;;;;;7.79;67.63;100241.59;27314;1217;3054939;-72
2021/11/07 01:02:13;;;;;;;18.10;9.60;;;;;;;7.65;67.95;100249.10;27331;1218;3051925;-68
2021/11/07 01:04:48;;;;;;;14.30;9.00;;;;;;;7.46;68.20;100248.89;27347;1218;3057114;-74
2021/11/07 01:07:17;;;;;;;19.80;10.10;;;;;;;7.24;68.72;100246.86;27302;1216;3048517;-75
2021/11/07 01:09:46;;;;;;;17.80;9.90;;;;;;;7.22;68.33;100250.41;27318;1209;3025805;-70
2021/11/07 01:12:16;;;;;;;19.80;10.20;;;;;;;6.99;69.44;100250.84;27369;1218;3028424;-71
2021/11/07 01:14:45;;;;;;;20.10;11.20;;;;;;;6.83;70.17;100253.11;27281;1218;3049021;-71
2021/11/07 01:17:15;;;;;;;22.70;11.50;;;;;;;6.74;70.36;100250.09;27337;1218;3026955;-71
2021/11/07 01:19:45;;;;;;;25.80;12.80;;;;;;;6.65;70.63;100251.40;27343;1217;3026293;-67
2021/11/07 01:22:21;;;;;;;22.20;10.40;;;;;;;6.61;71.08;100251.00;27325;1217;3026445;-76
2021/11/07 01:24:56;;;;;;;21.00;10.40;;;;;;;7.28;69.42;100248.80;27362;1218;3052978;-69
2021/11/07 01:27:33;;;;;;;20.90;11.20;;;;;;;7.79;67.69;100249.10;27337;1217;3051496;-73
2021/11/07 01:30:16;;;;;;;24.60;10.80;;;;;;;7.73;67.30;100245.33;27365;1217;3071018;-71
2021/11/07 01:32:49;;;;;;;20.70;11.40;;;;;;;7.49;67.52;100251.04;27273;1218;3048988;-70
2021/11/07 01:35:30;;;;;;;26.40;13.70;;;;;;;7.11;68.57;100251.15;27326;1217;3051539;-72
2021/11/07 01:40:40;;;;;;;25.80;13.50;;;;;;;6.78;69.91;100251.01;27319;1218;3056223;-71
2021/11/07 01:43:10;;;;;;;32.30;14.30;;;;;;;6.61;70.26;100249.08;27275;1218;3051989;-74
2021/11/07 01:45:47;;;;;;;31.80;13.90;;;;;;;6.51;70.37;100252.01;27334;1218;3026819;-70
2021/11/07 01:48:21;;;;;;;31.90;14.80;;;;;;;6.34;70.84;100252.20;27319;1217;3050538;-72
2021/11/07 01:50:56;;;;;;;38.10;16.10;;;;;;;6.38;70.82;100251.91;27385;1217;3066576;-75
2021/11/07 01:53:30;;;;;;;31.10;15.80;;;;;;;6.32;71.45;100252.09;27346;1218;3048478;-72
2021/11/07 01:56:01;;;;;;;;;;;;;;;6.82;70.31;100247.73;27389;1217;3053454;-72
2021/11/07 01:58:30;;;;;;;25.50;13.20;;;;;;;7.14;68.68;100242.84;27397;1217;3025939;-72
2021/11/07 02:01:01;;;;;;;35.20;14.90;;;;;;;7.38;67.43;100241.15;27369;1217;3026824;-76
2021/11/07 02:03:31;;;;;;;39.50;18.60;;;;;;;7.28;67.41;100238.36;27343;1217;3026418;-73
2021/11/07 02:06:00;;;;;;;39.10;19.00;;;;;;;7.04;68.11;100242.84;27299;1218;3025882;-75
2021/11/07 02:08:29;;;;;;;43.80;18.90;;;;;;;6.82;68.38;100242.87;27388;1209;3026115;-70
2021/11/07 02:10:58;;;;;;;45.50;20.00;;;;;;;6.68;68.89;100240.89;27290;1217;3049094;-69
2021/11/07 02:13:27;;;;;;;46.40;19.60;;;;;;;6.68;68.37;100239.48;27305;1218;3026283;-76
2021/11/07 02:15:57;;;;;;;42.40;19.60;;;;;;;6.60;68.24;100234.69;27358;1210;3027013;-68
2021/11/07 02:18:26;;;;;;;47.00;21.20;;;;;;;6.51;68.85;100235.66;27320;1218;3026145;-70
2021/11/07 02:20:56;;;;;;;53.60;22.90;;;;;;;6.45;68.94;100235.85;27360;1202;3026613;-68
2021/11/07 02:23:26;;;;;;;49.80;23.60;;;;;;;6.35;69.55;100242.41;27660;1209;3025997;-70
2021/11/07 02:25:57;;;;;;;52.80;24.20;;;;;;;6.24;69.99;100241.88;27472;1217;3025851;-69
2021/11/07 02:28:32;;;;;;;44.80;18.60;;;;;;;6.20;70.54;100244.26;27344;1218;3027228;-70
2021/11/07 02:31:03;;;;;;;33.60;14.50;;;;;;;6.85;69.05;100236.66;27325;1216;3051633;-76
2021/11/07 02:33:33;;;;;;;33.40;13.60;;;;;;;7.50;66.17;100233.25;27316;1218;3026542;-70
2021/11/07 02:36:09;;;;;;;41.40;15.90;;;;;;;7.50;65.28;100236.56;27362;1217;3026370;-68
2021/11/07 02:38:39;;;;;;;42.30;16.60;;;;;;;7.42;65.20;100233.52;27324;1209;3051795;-69
2021/11/07 02:41:09;;;;;;;37.50;17.60;;;;;;;7.26;64.95;100238.76;27286;1218;3026792;-71
2021/11/07 02:43:49;;;;;;;44.90;18.10;;;;;;;7.09;65.64;100242.68;27309;1218;3026021;-75
2021/11/07 02:46:18;;;;;;;40.70;19.10;;;;;;;6.95;65.80;100238.09;27318;1217;3068830;-68
2021/11/07 02:48:50;;;;;;;38.10;17.40;;;;;;;6.76;66.25;100236.27;27319;1217;3026400;-72
2021/11/07 02:51:24;;;;;;;30.90;15.90;;;;;;;6.69;66.07;100234.07;27263;1217;3026996;-71
2021/11/07 02:53:53;;;;;;;35.40;16.60;;;;;;;6.62;66.07;100240.53;27376;1216;3051690;-77
2021/11/07 02:56:22;;;;;;;39.00;15.90;;;;;;;6.57;66.28;100232.19;27291;1217;3026695;-80
2021/11/07 02:58:51;;;;;;;32.90;14.60;;;;;;;6.51;66.24;100234.44;27279;1218;3054095;-74
2021/11/07 03:01:22;;;;;;;37.50;16.80;;;;;;;6.40;66.38;100239.14;27285;1218;3025991;-73
2021/11/07 03:03:53;;;;;;;43.50;17.20;;;;;;;6.35;66.69;100236.86;27378;1218;3048527;-72
2021/11/07 03:06:23;;;;;;;32.60;14.70;;;;;;;6.32;66.71;100238.88;27283;1218;3028265;-77
2021/11/07 03:08:52;;;;;;;29.60;12.50;;;;;;;6.37;66.36;100242.20;27329;1209;3025943;-68
2021/11/07 03:11:26;;;;;;;34.70;16.20;;;;;;;6.35;66.31;100240.34;27277;1217;3051330;-76
2021/11/07 03:14:21;;;;;;;40.00;16.90;;;;;;;6.31;66.70;100243.23;27326;1218;3052254;-75
2021/11/07 03:16:52;;;;;;;34.20;16.90;;;;;;;6.14;67.21;100242.38;27349;1218;3054056;-71
2021/11/07 03:19:22;;;;;;;40.20;19.00;;;;;;;6.11;67.84;100245.23;27290;1217;3026494;-72
2021/11/07 03:21:52;;;;;;;47.90;20.10;;;;;;;5.96;68.17;100245.29;27294;1217;3025790;-75
2021/11/07 03:24:22;;;;;;;46.40;22.90;;;;;;;5.76;69.11;100251.78;27344;1217;3026459;-70
2021/11/07 03:26:51;;;;;;;35.70;16.30;;;;;;;5.62;69.79;100249.73;27374;1216;3026932;-73
2021/11/07 03:29:22;;;;;;;31.90;15.40;;;;;;;6.04;68.66;100248.02;27365;1218;3028730;-73
2021/11/07 03:31:56;;;;;;;30.40;14.40;;;;;;;6.60;67.29;100247.73;27401;1216;3027301;-71
2021/11/07 03:34:31;;;;;;;37.00;16.00;;;;;;;6.70;66.68;100246.55;27392;1218;3051944;-72
2021/11/07 03:37:03;;;;;;;31.20;15.10;;;;;;;6.59;66.85;100243.41;27380;1218;3051741;-71
2021/11/07 03:39:34;;;;;;;31.20;16.00;;;;;;;6.21;67.67;100254.15;27343;1218;3027690;-70
2021/11/07 03:42:08;;;;;;;33.10;16.90;;;;;;;5.94;68.30;100254.91;27348;1216;3026247;-72
2021/11/07 03:44:38;;;;;;;33.70;19.00;;;;;;;5.53;69.73;100260.04;27362;1218;3026177;-72
2021/11/07 03:47:08;;;;;;;45.90;21.50;;;;;;;5.40;69.76;100262.48;27408;1217;3026362;-73
2021/11/07 03:49:38;;;;;;;30.00;16.90;;;;;;;5.20;70.53;100265.26;27433;1218;3026312;-69
2021/11/07 03:52:09;;;;;;;40.30;20.80;;;;;;;5.03;71.23;100265.17;27490;1217;3026859;-68
2021/11/07 03:54:40;;;;;;;40.80;18.30;;;;;;;4.75;72.39;100263.75;27503;1217;3026281;-67
2021/11/07 03:57:11;;;;;;;39.60;18.00;;;;;;;4.98;72.19;100270.14;27452;1209;3027859;-73
2021/11/07 03:59:41;;;;;;;35.80;17.10;;;;;;;5.65;70.30;100263.89;27516;1216;3026915;-68
2021/11/07 04:02:11;;;;;;;34.60;16.00;;;;;;;5.45;70.04;100264.44;27436;1217;3025870;-69
2021/11/07 04:04:40;;;;;;;38.80;17.90;;;;;;;5.49;69.48;100263.63;27430;1209;3027070;-73
2021/11/07 04:07:09;;;;;;;29.90;15.00;;;;;;;5.67;68.40;100262.47;27409;1217;3026054;-72
2021/11/07 04:09:40;;;;;;;28.50;13.70;;;;;;;5.81;67.55;100262.23;27371;1217;3048968;-69
2021/11/07 04:12:09;;;;;;;32.10;16.00;;;;;;;5.90;67.18;100261.46;27435;1210;3027061;-69
2021/11/07 04:14:38;;;;;;;33.00;18.40;;;;;;;5.84;67.05;100258.69;27437;1218;3026150;-70
2021/11/07 04:17:09;;;;;;;43.10;19.10;;;;;;;5.83;67.46;100258.19;27483;1216;3026012;-68
2021/11/07 04:19:38;;;;;;;46.50;24.20;;;;;;;5.61;68.55;100260.54;27418;1217;3051947;-70
2021/11/07 04:22:09;;;;;;;36.90;17.60;;;;;;;5.38;69.23;100263.40;27410;1217;3026047;-73
2021/11/07 04:24:38;;;;;;;45.70;20.30;;;;;;;5.35;69.11;100262.61;27450;1217;3051809;-70
2021/11/07 04:27:08;;;;;;;36.60;17.90;;;;;;;5.07;70.02;100267.66;27460;1209;3025868;-71
2021/11/07 04:29:37;;;;;;;33.10;13.60;;;;;;;4.97;70.90;100275.58;27488;1218;3026421;-71
2021/11/07 04:32:06;;;;;;;44.60;17.50;;;;;;;5.74;69.62;100268.34;27447;1218;3048297;-70
2021/11/07 04:34:38;;;;;;;41.60;18.50;;;;;;;6.01;67.74;100261.19;27476;1217;3026154;-71
2021/11/07 04:37:08;;;;;;;37.20;17.20;;;;;;;5.82;67.73;100260.30;27514;1209;3027846;-68
2021/11/07 04:39:37;;;;;;;38.60;19.60;;;;;;;5.65;67.91;100261.47;27499;1209;3026935;-72
2021/11/07 04:42:07;;;;;;;53.40;24.90;;;;;;;5.28;69.25;100258.80;27418;1218;3026039;-68
2021/11/07 04:44:36;;;;;;;68.50;28.10;;;;;;;5.18;69.44;100258.88;27519;1217;3051267;-68
2021/11/07 04:47:05;;;;;;;71.00;30.00;;;;;;;5.12;69.83;100258.52;27494;1210;3025826;-70
2021/11/07 04:49:34;;;;;;;63.60;29.00;;;;;;;5.08;69.90;100256.88;27479;1216;3052067;-66
2021/11/07 04:52:03;;;;;;;46.60;21.20;;;;;;;5.23;69.12;100255.98;27546;1210;3027987;-64
2021/11/07 04:54:33;;;;;;;39.10;19.10;;;;;;;5.43;67.96;100258.42;27520;1216;3050106;-71
2021/11/07 04:57:02;;;;;;;32.10;16.40;;;;;;;5.51;67.45;100257.86;27497;1217;3025974;-69
2021/11/07 04:59:31;;;;;;;35.50;19.50;;;;;;;5.60;66.98;100260.39;27447;1218;3026531;-69
2021/11/07 05:02:00;;;;;;;54.90;21.70;;;;;;;5.66;66.99;100262.33;27558;1217;3048320;-69
2021/11/07 05:04:29;;;;;;;57.70;26.50;;;;;;;5.70;66.85;100262.56;27589;1217;3025891;-69
2021/11/07 05:06:58;;;;;;;84.70;33.80;;;;;;;5.67;67.18;100265.92;27528;1218;3057992;-66
2021/11/07 05:09:28;;;;;;;111.00;47.60;;;;;;;5.56;67.51;100266.40;27522;1212;3026283;-69
2021/11/07 05:11:57;;;;;;;91.80;45.30;;;;;;;5.42;68.22;100269.90;27532;1218;3050751;-70
2021/11/07 05:14:26;;;;;;;44.90;24.40;;;;;;;5.47;68.03;100270.98;27546;1210;3026731;-68
2021/11/07 05:16:55;;;;;;;24.60;12.20;;;;;;;5.55;68.07;100278.77;27419;1217;3027817;-73
2021/11/07 05:19:24;;;;;;;20.60;10.50;;;;;;;6.15;66.90;100272.77;27392;1218;3053601;-72
2021/11/07 05:21:53;;;;;;;23.90;10.20;;;;;;;6.22;66.01;100273.42;27427;1218;3027987;-70
2021/11/07 05:24:22;;;;;;;20.40;9.40;;;;;;;6.34;65.74;100282.14;27494;1217;3054008;-70
2021/11/07 05:26:51;;;;;;;26.60;10.80;;;;;;;6.16;65.84;100275.55;27412;1218;3028075;-70
2021/11/07 05:29:20;;;;;;;23.80;11.70;;;;;;;5.83;66.49;100283.58;27454;1218;3048703;-70
2021/11/07 05:31:49;;;;;;;19.10;9.60;;;;;;;5.68;67.10;100286.06;27493;1216;3026292;-72
2021/11/07 05:34:18;;;;;;;22.90;12.00;;;;;;;5.52;67.43;100294.65;27526;1217;3067272;-67
2021/11/07 05:36:47;;;;;;;18.90;10.60;;;;;;;5.15;68.81;100299.60;27546;1216;3027565;-69
2021/11/07 05:39:16;;;;;;;21.60;11.80;;;;;;;4.85;70.08;100307.63;27537;1217;3051235;-73
2021/11/07 05:41:46;;;;;;;23.10;11.90;;;;;;;4.68;70.57;100308.86;27520;1216;3026343;-67
2021/11/07 05:44:15;;;;;;;24.50;12.50;;;;;;;4.58;71.00;100303.72;27468;1209;3026609;-71
2021/11/07 05:46:44;;;;;;;16.20;7.90;;;;;;;4.54;71.47;100297.91;27489;1218;3049036;-73
2021/11/07 05:49:14;;;;;;;21.70;11.40;;;;;;;5.37;70.17;100294.01;27492;1209;3026027;-76
2021/11/07 05:51:43;;;;;;;21.10;9.70;;;;;;;5.69;68.31;100288.13;27497;1218;3026742;-71
2021/11/07 05:54:11;;;;;;;17.70;10.30;;;;;;;5.90;67.71;100284.42;27490;1217;3050409;-68
2021/11/07 05:56:40;;;;;;;20.20;10.70;;;;;;;5.73;67.59;100284.90;27474;1209;3026004;-69
2021/11/07 05:59:09;;;;;;;19.50;9.50;;;;;;;5.40;68.15;100283.16;27468;1218;3051694;-68
2021/11/07 06:01:38;;;;;;;29.50;14.50;;;;;;;5.27;68.56;100281.58;27517;1212;3026447;-71
2021/11/07 06:04:07;;;;;;;27.10;14.10;;;;;;;5.40;67.90;100285.42;27422;1218;3051702;-74
2021/11/07 06:06:37;;;;;;;29.70;12.90;;;;;;;5.41;67.88;100284.36;27411;1209;3026672;-72
2021/11/07 06:09:06;;;;;;;34.40;17.90;;;;;;;5.24;68.41;100288.09;27393;1218;3026456;-69
2021/11/07 06:11:35;;;;;;;39.00;19.40;;;;;;;5.36;68.07;100286.23;27378;1218;3051303;-76
2021/11/07 06:14:04;;;;;;;40.90;18.80;;;;;;;5.36;68.18;100284.65;27413;1218;3027743;-71
2021/11/07 06:16:33;;;;;;;52.70;28.30;;;;;;;5.35;67.95;100285.04;27366;1217;3055685;-71
2021/11/07 06:19:02;;;;;;;62.00;28.80;;;;;;;5.38;68.16;100287.04;27350;1217;3028013;-78
2021/11/07 06:21:32;;;;;;;62.70;31.90;;;;;;;5.44;68.04;100290.37;27338;1217;3050880;-73
2021/11/07 06:24:03;;;;;;;54.40;27.40;;;;;;;5.56;67.61;100287.97;27300;1217;3025946;-68
2021/11/07 06:26:34;;;;;;;68.50;32.20;;;;;;;5.67;67.14;100282.26;27360;1218;3026307;-73
2021/11/07 06:29:03;;;;;;;60.20;27.70;;;;;;;5.82;66.62;100282.02;27378;1217;3026170;-77
2021/11/07 06:31:32;;;;;;;59.90;26.80;;;;;;;5.95;66.51;100282.36;27323;1217;3026192;-71
2021/11/07 06:34:01;;;;;;;56.10;28.60;;;;;;;6.00;66.80;100287.11;27270;1218;3048642;-68
2021/11/07 06:36:30;;;;;;;35.90;15.40;;;;;;;6.00;67.72;100291.09;27330;1216;3028007;-72
2021/11/07 06:39:01;;;;;;;32.00;13.90;;;;;;;6.51;66.47;100288.39;27314;1217;3056440;-71
2021/11/07 06:41:30;;;;;;;29.20;12.90;;;;;;;7.29;64.63;100283.29;27303;1217;3026124;-71
2021/11/07 06:43:59;;;;;;;27.90;12.90;;;;;;;7.69;63.97;100277.73;27278;1217;3025826;-73
2021/11/07 06:46:28;;;;;;;29.50;14.00;;;;;;;7.68;63.12;100281.23;27334;1217;3025911;-71
2021/11/07 06:48:58;;;;;;;39.90;18.90;;;;;;;7.54;62.74;100286.80;27359;1218;3049147;-72
2021/11/07 06:51:27;;;;;;;48.20;20.40;;;;;;;7.23;63.82;100288.21;27334;1217;3025955;-72
2021/11/07 06:53:57;;;;;;;46.60;22.00;;;;;;;6.92;64.77;100292.88;27416;1218;3056142;-70
2021/11/07 06:56:27;;;;;;;46.20;19.80;;;;;;;6.73;65.71;100289.29;27463;1216;3026411;-75
2021/11/07 06:58:57;;;;;;;26.90;15.10;;;;;;;6.72;65.63;100288.61;27514;1216;3025916;-70
2021/11/07 07:01:27;;;;;;;28.20;14.10;;;;;;;6.62;65.89;100291.38;27479;1218;3058810;-71
2021/11/07 07:03:56;;;;;;;29.00;14.80;;;;;;;6.34;66.70;100294.30;27462;1211;3028181;-72
2021/11/07 07:06:26;;;;;;;21.10;12.00;;;;;;;6.35;66.83;100292.02;27453;1218;3025653;-70
2021/11/07 07:08:59;;;;;;;29.10;15.40;;;;;;;6.35;66.31;100283.48;27517;1212;3026223;-79
2021/11/07 07:11:48;;;;;;;38.30;19.00;;;;;;;6.02;67.59;100283.75;27481;1217;3025832;-69
2021/11/07 07:14:38;;;;;;;42.70;19.60;;;;;;;6.22;67.46;100285.42;27612;1218;3051165;-67
2021/11/07 07:25:04;;;;;;;41.90;22.30;;;;;;;6.76;66.05;100294.42;27497;1203;3025791;-71
2021/11/07 07:30:29;;;;;;;41.00;19.20;;;;;;;6.91;66.16;100286.11;27417;1218;3055578;-68
2021/11/07 07:35:30;;;;;;;30.60;14.20;;;;;;;8.10;64.68;100281.11;27453;1218;3026384;-70
2021/11/07 07:37:59;;;;;;;49.70;18.80;;;;;;;8.79;62.54;100274.09;27380;1218;3026160;-68
2021/11/07 07:40:27;;;;;;;40.20;20.20;;;;;;;8.89;61.11;100275.98;27354;1218;3048531;-72
2021/11/07 07:42:56;;;;;;;52.70;27.40;;;;;;;9.00;61.39;100273.64;27296;1217;3026091;-76
2021/11/07 07:45:26;;;;;;;99.40;50.20;;;;;;;8.91;60.83;100272.23;27240;1202;3058407;-70
2021/11/07 07:47:55;;;;;;;107.80;55.00;;;;;;;8.83;60.39;100273.27;27239;1218;3026227;-73
2021/11/07 07:50:25;;;;;;;94.70;50.90;;;;;;;8.82;60.43;100279.23;27339;1218;3026239;-71
2021/11/07 07:52:54;;;;;;;68.80;40.30;;;;;;;8.73;60.52;100276.10;27303;1218;3026278;-72
2021/11/07 07:55:23;;;;;;;56.70;28.60;;;;;;;8.69;60.78;100271.55;27210;1217;3049664;-71
2021/11/07 07:57:53;;;;;;;32.60;21.30;;;;;;;8.72;60.79;100273.17;27283;1218;3026498;-74
2021/11/07 08:00:22;;;;;;;34.60;16.20;;;;;;;8.81;61.15;100275.45;27268;1218;3055197;-72
2021/11/07 08:02:51;;;;;;;25.20;12.20;;;;;;;8.84;61.14;100279.48;27268;1217;3026447;-68
2021/11/07 08:05:23;;;;;;;25.40;10.80;;;;;;;8.82;60.73;100282.73;27260;1219;3025944;-75
2021/11/07 08:07:52;;;;;;;18.50;9.70;;;;;;;8.87;60.44;100291.10;27292;1217;3055966;-70
2021/11/07 08:10:21;;;;;;;17.30;11.00;;;;;;;8.90;60.47;100288.02;27242;1217;3027304;-76
2021/11/07 08:12:50;;;;;;;16.30;10.40;;;;;;;8.80;60.58;100285.07;27248;1217;3051780;-71
2021/11/07 08:15:20;;;;;;;19.40;10.60;;;;;;;8.77;60.00;100277.70;27258;1218;3026569;-73
2021/11/07 08:17:49;;;;;;;13.50;9.40;;;;;;;8.90;60.17;100280.48;27254;1217;3053494;-72
2021/11/07 08:20:19;;;;;;;14.50;8.10;;;;;;;9.02;59.67;100275.95;27283;1218;3026081;-72
2021/11/07 08:22:49;;;;;;;12.40;7.70;;;;;;;8.97;59.24;100280.03;27255;1218;3049994;-77
2021/11/07 08:25:21;;;;;;;14.60;8.50;;;;;;;8.86;59.68;100275.42;27268;1218;3029322;-71
2021/11/07 08:27:57;;;;;;;9.70;5.80;;;;;;;8.90;59.91;100273.13;27217;1218;3054357;-77
2021/11/07 08:30:26;;;;;;;10.90;6.60;;;;;;;9.01;59.02;100276.18;27240;1217;3058231;-74
2021/11/07 08:32:56;;;;;;;14.50;8.40;;;;;;;8.98;59.54;100274.55;27240;1217;3026133;-70
2021/11/07 08:35:26;;;;;;;12.60;7.00;;;;;;;8.99;59.91;100272.25;27259;1218;3026052;-71
2021/11/07 08:38:03;;;;;;;14.50;7.90;;;;;;;9.07;59.53;100274.02;27287;1218;3028974;-79
2021/11/07 08:40:38;;;;;;;15.50;8.20;;;;;;;9.23;59.56;100276.31;27230;1218;3070787;-74
2021/11/07 09:05:27;;;;;;;7.90;4.80;;;;;;;9.86;56.35;100254.70;27226;1218;3049609;-78
2021/11/07 09:10:30;;;;;;;16.20;5.50;;;;;;;9.90;55.93;100239.33;27236;1218;3026048;-69
2021/11/07 09:13:01;;;;;;;9.80;5.30;;;;;;;9.95;55.53;100234.90;27229;1218;3026655;-71
2021/11/07 09:15:34;;;;;;;10.70;5.70;;;;;;;10.08;55.17;100221.66;27217;1218;3050675;-75
2021/11/07 09:18:13;;;;;;;10.70;6.50;;;;;;;10.16;55.27;100220.09;27277;1218;3054093;-68
2021/11/07 09:23:30;;;;;;;9.30;4.70;;;;;;;10.19;54.55;100220.30;27296;1218;3050277;-69
2021/11/07 09:28:49;;;;;;;7.80;5.20;;;;;;;10.01;54.01;100219.05;27240;1218;3053458;-69
2021/11/07 09:33:55;;;;;;;11.00;4.40;;;;;;;10.22;54.22;100204.05;27273;1212;3026588;-76
2021/11/07 09:36:28;;;;;;;7.00;5.00;;;;;;;10.31;54.30;100200.67;27305;1218;3051122;-74
2021/11/07 09:41:47;;;;;;;8.80;4.40;;;;;;;10.29;53.59;100198.45;27288;1217;3047930;-74
2021/11/07 09:44:21;;;;;;;9.40;5.40;;;;;;;10.40;53.84;100197.98;27282;1217;3051854;-73
2021/11/07 09:49:32;;;;;;;11.90;6.60;;;;;;;10.44;53.51;100184.14;27347;1218;3026065;-71
2021/11/07 09:52:10;;;;;;;9.30;4.50;;;;;;;10.38;53.62;100188.10;27207;1218;3048622;-74
2021/11/07 09:54:44;;;;;;;8.80;4.40;;;;;;;10.37;53.75;100188.33;27265;1217;3052724;-74
2021/11/07 09:57:19;;;;;;;9.60;4.90;;;;;;;10.33;54.46;100178.86;27262;1218;3051093;-70
2021/11/07 09:59:56;;;;;;;9.40;5.20;;;;;;;10.44;54.60;100172.06;27253;1219;3068414;-73
2021/11/07 10:02:26;;;;;;;7.80;4.80;;;;;;;10.50;54.70;100175.77;27304;1218;3047574;-74
2021/11/07 10:04:58;;;;;;;9.70;4.70;;;;;;;10.35;55.22;100177.35;27278;1217;3026286;-70
2021/11/07 10:07:32;;;;;;;8.40;4.90;;;;;;;10.40;54.87;100172.92;27503;1217;3025932;-69
2021/11/07 10:10:11;;;;;;;15.10;5.60;;;;;;;10.35;55.40;100169.49;27444;1218;3026285;-70
2021/11/07 10:12:43;;;;;;;10.20;5.80;;;;;;;10.47;55.38;100167.70;27230;1217;3049701;-71
2021/11/07 10:15:25;;;;;;;11.20;6.60;;;;;;;10.58;55.61;100154.19;27230;1218;3026123;-71
2021/11/07 10:18:06;;;;;;;12.10;6.80;;;;;;;10.61;55.79;100162.67;27287;1219;3053173;-73
2021/11/07 10:20:46;;;;;;;14.40;6.70;;;;;;;10.65;55.57;100155.76;27211;1219;3070321;-75
2021/11/07 10:23:23;;;;;;;9.50;4.50;;;;;;;10.74;54.70;100157.61;27274;1218;3048631;-71
2021/11/07 10:26:15;;;;;;;8.80;5.00;;;;;;;10.72;54.47;100144.88;27283;1217;3051916;-73
2021/11/07 10:28:57;;;;;;;10.90;4.60;;;;;;;10.74;54.46;100139.75;27229;1218;3052474;-73
2021/11/07 10:31:33;;;;;;;8.20;4.80;;;;;;;10.71;54.19;100138.34;27284;1218;3056431;-72
2021/11/07 10:53:46;;;;;;;6.90;3.00;;;;;;;11.43;51.06;100114.58;27258;1219;3055798;-67
2021/11/07 10:56:15;;;;;;;11.70;3.50;;;;;;;11.38;51.36;100106.95;27268;1219;3028075;-78
2021/11/07 10:58:46;;;;;;;7.80;4.20;;;;;;;11.38;51.83;100104.35;27253;1219;3025813;-69
2021/11/07 11:01:21;;;;;;;8.70;3.50;;;;;;;11.33;52.11;100098.84;27256;1219;3055210;-70
2021/11/07 11:03:59;;;;;;;9.00;4.40;;;;;;;11.44;51.90;100092.24;27262;1218;3048869;-73
2021/11/07 11:06:29;;;;;;;9.30;5.20;;;;;;;11.32;52.45;100095.02;27252;1218;3052634;-71
2021/11/07 11:09:01;;;;;;;10.90;5.40;;;;;;;11.30;52.58;100092.82;27232;1219;3026464;-69
2021/11/07 11:14:33;;;;;;;8.20;4.40;;;;;;;11.25;52.48;100088.35;27224;1218;3025994;-72
2021/11/07 11:17:36;;;;;;;10.50;4.60;;;;;;;11.43;52.16;100083.52;27319;1218;3054359;-70
2021/11/07 11:20:40;;;;;;;8.70;3.80;;;;;;;11.67;51.21;100083.11;27240;1219;3052660;-73
2021/11/07 11:23:06;;;;;;;7.30;3.40;;;;;;;11.50;50.72;100073.15;27235;1219;3056178;-75
2021/11/07 11:31:00;;;;;;;4.50;3.20;;;;;;;11.80;48.40;100044.85;27237;1218;3054715;-69
2021/11/07 11:33:43;;;;;;;6.10;3.30;;;;;;;11.95;48.09;100037.85;27211;1218;3070738;-74
2021/11/07 11:36:29;;;;;;;5.60;3.10;;;;;;;11.90;46.65;100037.62;27277;1218;3048412;-70
2021/11/07 11:39:08;;;;;;;7.60;3.10;;;;;;;11.82;47.09;100032.98;27268;1218;3054741;-66
2021/11/07 11:44:20;;;;;;;5.60;2.90;;;;;;;12.13;46.48;100020.19;27265;1217;3058129;-72
2021/11/07 11:47:29;;;;;;;5.80;3.30;;;;;;;12.07;46.23;100022.11;27253;1219;3027858;-67
2021/11/07 11:50:15;;;;;;;3.60;2.00;;;;;;;11.94;46.12;100018.45;27264;1218;3054139;-75
2021/11/07 11:58:24;;;;;;;5.80;2.60;;;;;;;11.78;47.24;100016.33;27256;1219;3053105;-76
2021/11/07 12:00:59;;;;;;;5.60;2.50;;;;;;;11.57;47.08;100019.47;27241;1222;3052312;-66
2021/11/07 12:06:25;;;;;;;6.90;2.70;;;;;;;11.69;47.24;100002.66;27255;1218;3051314;-76
2021/11/07 12:12:07;;;;;;;8.00;3.20;;;;;;;11.61;47.46;99989.06;27204;1218;3055394;-70
2021/11/07 12:15:08;;;;;;;;;;;;;;;11.87;47.26;99985.10;27222;1219;3057806;-72
2021/11/07 12:17:39;;;;;;;4.40;2.50;;;;;;;11.90;47.04;99989.33;27235;1217;3053552;-70
2021/11/07 12:20:21;;;;;;;6.50;2.40;;;;;;;11.90;46.64;99992.63;27260;1217;3026967;-69
2021/11/07 12:22:51;;;;;;;6.60;2.30;;;;;;;12.16;46.39;99994.02;27244;1219;3050058;-76
2021/11/07 12:25:20;;;;;;;4.80;2.50;;;;;;;12.20;46.32;100003.94;27211;1219;3029758;-67
2021/11/07 12:27:53;;;;;;;4.90;2.10;;;;;;;12.13;45.91;100007.20;27241;1218;3027893;-73
2021/11/07 12:30:26;;;;;;;3.90;1.80;;;;;;;12.10;45.99;100012.64;27254;1218;3027612;-68
2021/11/07 12:33:13;;;;;;;;;;;;;;;12.24;46.33;100017.40;27252;1218;3055008;-71
2021/11/07 12:36:28;;;;;;;7.60;2.30;;;;;;;12.09;46.41;100006.67;27227;1217;3056331;-67
2021/11/07 12:41:28;;;;;;;4.60;2.60;;;;;;;11.84;47.29;100025.65;27237;1216;3055154;-72
2021/11/07 12:44:06;;;;;;;4.60;2.10;;;;;;;11.75;47.73;100036.33;27238;1215;3037037;-68
2021/11/07 12:49:16;;;;;;;7.50;3.20;;;;;;;11.81;48.28;100011.27;27290;1216;3052081;-74
2021/11/07 12:51:52;;;;;;;8.90;3.10;;;;;;;11.90;48.46;100017.77;27253;1215;3050570;-69
2021/11/07 12:54:24;;;;;;;6.90;3.20;;;;;;;11.99;48.12;100008.15;27250;1215;3068356;-73
2021/11/07 12:57:03;;;;;;;9.20;3.20;;;;;;;11.84;48.90;99999.52;27205;1215;3025893;-67
2021/11/07 12:59:51;;;;;;;9.10;3.80;;;;;;;11.82;49.00;99995.77;27236;1216;3051509;-70
2021/11/07 13:02:28;;;;;;;7.50;2.90;;;;;;;11.73;49.09;99994.67;27249;1215;3056689;-77
2021/11/07 13:05:12;;;;;;;11.90;4.00;;;;;;;11.69;49.24;99979.84;27241;1216;3058431;-75
2021/11/07 13:07:51;;;;;;;10.50;5.50;;;;;;;11.70;49.61;99976.06;27253;1216;3052255;-69
2021/11/07 13:34:35;;;;;;;11.40;4.70;;;;;;;10.92;51.92;99956.39;27240;1216;3057261;-77
2021/11/07 13:37:07;;;;;;;9.10;4.00;;;;;;;10.92;51.90;99956.21;27237;1216;3026190;-71
2021/11/07 13:39:37;;;;;;;11.30;4.40;;;;;;;10.83;52.06;99950.52;27247;1216;3026550;-73
2021/11/07 13:42:13;;;;;;;9.10;4.30;;;;;;;10.73;51.75;99949.33;27305;1215;3026360;-70
2021/11/07 13:44:53;;;;;;;11.60;5.30;;;;;;;10.69;52.03;99945.70;27262;1215;3071396;-70
2021/11/07 13:47:33;;;;;;;14.10;5.20;;;;;;;10.65;51.95;99951.85;27287;1216;3049209;-74
2021/11/07 13:50:10;;;;;;;14.40;4.90;;;;;;;10.49;52.30;99954.94;27317;1215;3052559;-71
2021/11/07 13:52:43;;;;;;;11.60;4.90;;;;;;;10.50;52.36;99951.95;27290;1215;3051598;-73
2021/11/07 13:55:16;;;;;;;12.10;4.70;;;;;;;10.33;52.83;99950.53;27234;1215;3025701;-71
2021/11/07 13:57:46;;;;;;;14.90;6.70;;;;;;;10.21;53.14;99945.39;27264;1215;3050934;-72
2021/11/07 14:00:20;;;;;;;14.10;5.20;;;;;;;10.18;53.40;99945.15;27260;1216;3027415;-69
2021/11/07 14:02:53;;;;;;;12.60;5.30;;;;;;;10.20;53.27;99942.98;27260;1216;3055245;-72
2021/11/07 14:05:23;;;;;;;13.80;5.40;;;;;;;10.04;53.78;99939.91;27227;1215;3048802;-69
2021/11/07 14:08:00;;;;;;;10.70;5.20;;;;;;;10.07;53.94;99940.47;27269;1216;3027879;-76